Time;durP1;ratioP1;P1;durP2;ratioP2;P2;SDS_P1;SDS_P2;PMS_P1;PMS_P2;Temp;Humidity;BMP_temperature;BMP_pressure;BME280_temperature;BME280_humidity;BME280_pressure;Samples;Min_cycle;Max_cycle;Signal;HPM_P1;HPM_P2
2021/10/12 00:00:33;;;;;;;6.15;1.50;;;10.60;92.50;;;;;;5031626;28;20963;-62
2021/10/12 00:02:59;;;;;;;7.32;1.63;;;10.50;92.50;;;;;;5029659;28;20029;-62
2021/10/12 00:05:25;;;;;;;5.43;1.45;;;10.60;92.60;;;;;;5033352;28;20028;-62
2021/10/12 00:07:50;;;;;;;6.97;1.77;;;10.50;92.80;;;;;;5031618;28;20086;-62
2021/10/12 00:10:16;;;;;;;8.52;1.40;;;10.50;92.70;;;;;;5032493;28;20031;-62
2021/10/12 00:12:42;;;;;;;8.98;1.55;;;10.50;92.80;;;;;;5030106;28;20555;-62
2021/10/12 00:15:08;;;;;;;6.95;1.48;;;10.50;92.80;;;;;;5025395;28;20100;-62
2021/10/12 00:17:34;;;;;;;8.45;1.58;;;10.50;92.70;;;;;;5023296;28;20572;-62
2021/10/12 00:20:00;;;;;;;3.58;1.20;;;10.50;92.80;;;;;;5030442;28;20037;-62
2021/10/12 00:22:26;;;;;;;6.88;1.55;;;10.50;92.60;;;;;;5032451;28;20018;-62
2021/10/12 00:24:51;;;;;;;4.88;1.15;;;10.50;92.70;;;;;;5030668;28;20456;-62
2021/10/12 00:27:17;;;;;;;4.65;1.10;;;10.50;92.70;;;;;;5028805;28;20042;-62
2021/10/12 00:29:43;;;;;;;7.50;1.30;;;10.50;92.70;;;;;;5032590;28;20044;-62
2021/10/12 00:32:09;;;;;;;3.42;1.10;;;10.50;92.70;;;;;;5027363;28;20049;-62
2021/10/12 00:34:34;;;;;;;3.60;1.38;;;10.50;92.60;;;;;;5030746;28;20033;-62
2021/10/12 00:37:01;;;;;;;6.28;1.80;;;10.40;92.90;;;;;;5031068;28;20126;-62
2021/10/12 00:39:27;;;;;;;3.90;1.30;;;10.40;92.60;;;;;;5031252;28;20708;-62
2021/10/12 00:41:57;;;;;;;5.50;1.30;;;10.40;92.60;;;;;;5031145;28;20033;-62
2021/10/12 00:44:24;;;;;;;7.28;1.80;;;10.40;92.50;;;;;;5029303;28;20033;-62
2021/10/12 00:46:50;;;;;;;4.05;1.30;;;10.40;92.60;;;;;;5031163;28;20098;-64
2021/10/12 00:49:16;;;;;;;5.43;1.35;;;10.40;92.60;;;;;;5029512;28;20074;-65
2021/10/12 00:51:41;;;;;;;4.53;1.60;;;10.40;92.60;;;;;;5036722;28;20045;-65
2021/10/12 00:54:08;;;;;;;6.55;1.92;;;10.40;92.60;;;;;;5029899;28;20039;-65
2021/10/12 00:56:33;;;;;;;7.28;1.30;;;10.30;92.60;;;;;;5028873;28;20037;-65
2021/10/12 00:59:01;;;;;;;3.38;1.20;;;10.30;92.60;;;;;;5028602;28;20596;-65
2021/10/12 01:01:27;;;;;;;5.18;1.23;;;10.30;92.60;;;;;;5031643;28;20056;-65
2021/10/12 01:03:53;;;;;;;7.35;1.52;;;10.30;92.60;;;;;;5031898;28;20496;-65
2021/10/12 01:06:18;;;;;;;3.85;1.60;;;10.30;92.60;;;;;;5034816;28;20482;-65
2021/10/12 01:08:44;;;;;;;7.68;2.40;;;10.30;92.60;;;;;;5029398;28;20136;-64
2021/10/12 01:11:11;;;;;;;8.68;1.77;;;10.30;92.50;;;;;;5032025;28;20037;-65
2021/10/12 01:13:38;;;;;;;10.52;2.05;;;10.20;92.60;;;;;;5034538;28;20038;-64
2021/10/12 01:16:04;;;;;;;4.82;1.40;;;10.20;92.60;;;;;;5035066;28;20135;-66
2021/10/12 01:18:31;;;;;;;5.82;1.50;;;10.20;92.50;;;;;;5030669;28;20360;-65
2021/10/12 01:20:57;;;;;;;6.75;1.30;;;10.10;92.50;;;;;;5030200;28;20333;-65
2021/10/12 01:23:23;;;;;;;7.13;1.83;;;10.20;92.60;;;;;;5032757;28;20104;-65
2021/10/12 01:25:49;;;;;;;5.40;1.50;;;10.20;92.60;;;;;;5033901;28;20654;-65
2021/10/12 01:28:15;;;;;;;3.95;1.30;;;10.20;92.60;;;;;;5035589;28;20110;-64
2021/10/12 01:30:41;;;;;;;4.60;1.27;;;10.20;92.60;;;;;;5031168;28;20060;-65
2021/10/12 01:33:07;;;;;;;5.40;1.33;;;10.20;92.60;;;;;;5041991;28;20057;-65
2021/10/12 01:35:33;;;;;;;4.63;1.50;;;10.20;92.70;;;;;;5034482;28;20057;-65
2021/10/12 01:37:59;;;;;;;6.53;1.42;;;10.10;92.70;;;;;;5033279;28;20537;-64
2021/10/12 01:40:25;;;;;;;3.95;1.38;;;10.10;92.80;;;;;;5041215;28;20480;-65
2021/10/12 01:42:51;;;;;;;4.40;1.50;;;10.10;92.90;;;;;;5036554;28;20102;-65
2021/10/12 01:45:17;;;;;;;6.55;1.70;;;10.10;93.00;;;;;;5033405;28;20551;-65
2021/10/12 01:47:43;;;;;;;8.07;2.00;;;10.10;93.00;;;;;;5037760;28;20479;-65
2021/10/12 01:50:11;;;;;;;8.32;1.73;;;10.10;92.90;;;;;;5034675;28;20033;-65
2021/10/12 01:52:37;;;;;;;6.25;1.65;;;10.10;92.90;;;;;;5035572;28;20033;-64
2021/10/12 01:55:05;;;;;;;6.53;1.90;;;10.10;93.00;;;;;;5028592;28;20090;-65
2021/10/12 01:57:30;;;;;;;4.78;1.70;;;10.00;93.00;;;;;;5032329;28;20043;-64
2021/10/12 01:59:56;;;;;;;3.95;1.15;;;10.00;93.10;;;;;;5028832;28;20033;-66
2021/10/12 02:02:22;;;;;;;5.35;1.25;;;10.00;93.10;;;;;;5027084;28;20056;-64
2021/10/12 02:04:47;;;;;;;5.07;1.58;;;10.00;93.00;;;;;;5027863;28;20034;-64
2021/10/12 02:07:13;;;;;;;8.50;1.70;;;10.00;93.00;;;;;;5032210;28;20037;-64
2021/10/12 02:09:39;;;;;;;5.13;1.38;;;10.00;93.00;;;;;;5032202;28;20774;-64
2021/10/12 02:12:04;;;;;;;4.88;1.67;;;10.00;92.80;;;;;;5024924;28;20046;-65
2021/10/12 02:14:30;;;;;;;7.53;1.80;;;10.00;92.80;;;;;;5033914;28;20052;-65
2021/10/12 02:16:56;;;;;;;4.60;1.48;;;10.00;92.90;;;;;;5031499;28;20040;-65
2021/10/12 02:19:22;;;;;;;5.00;1.40;;;10.00;92.80;;;;;;5031777;28;20022;-65
2021/10/12 02:21:48;;;;;;;4.88;1.50;;;10.00;92.90;;;;;;5034427;28;20029;-65
2021/10/12 02:24:14;;;;;;;6.80;1.42;;;9.90;92.90;;;;;;5031060;28;20135;-65
2021/10/12 02:26:39;;;;;;;3.15;1.48;;;9.90;92.90;;;;;;5037253;28;20845;-66
2021/10/12 02:29:05;;;;;;;7.88;1.42;;;9.90;92.80;;;;;;5029809;28;20137;-66
2021/10/12 02:31:31;;;;;;;4.65;1.75;;;9.90;92.90;;;;;;5029026;28;20124;-65
2021/10/12 02:33:57;;;;;;;6.53;1.42;;;9.90;92.90;;;;;;5030932;28;20037;-66
2021/10/12 02:36:23;;;;;;;3.50;1.73;;;9.90;92.90;;;;;;5025822;28;20064;-66
2021/10/12 02:38:49;;;;;;;3.45;1.20;;;9.90;92.90;;;;;;5030260;28;20033;-66
2021/10/12 02:41:15;;;;;;;4.05;1.23;;;9.80;92.90;;;;;;5031776;28;20115;-66
2021/10/12 02:43:40;;;;;;;5.78;1.40;;;9.80;92.90;;;;;;5031433;28;20117;-66
2021/10/12 02:46:06;;;;;;;5.63;1.30;;;9.80;92.90;;;;;;5030016;28;20036;-65
2021/10/12 02:48:32;;;;;;;4.28;1.60;;;9.80;93.00;;;;;;5028111;28;20033;-66
2021/10/12 02:50:58;;;;;;;5.20;1.45;;;9.90;92.90;;;;;;5025552;28;20037;-66
2021/10/12 02:53:23;;;;;;;8.65;1.95;;;9.80;92.90;;;;;;5034487;28;20048;-65
2021/10/12 02:55:49;;;;;;;6.85;2.10;;;9.80;92.80;;;;;;5036247;28;20045;-66
2021/10/12 02:58:15;;;;;;;8.75;2.05;;;9.90;93.00;;;;;;5026975;28;20041;-65
2021/10/12 03:00:41;;;;;;;9.90;1.77;;;9.80;93.00;;;;;;5037845;28;20637;-65
2021/10/12 03:03:10;;;;;;;11.32;2.47;;;9.80;93.00;;;;;;5028046;28;20082;-65
2021/10/12 03:05:36;;;;;;;8.00;1.83;;;9.90;93.00;;;;;;5033334;28;20144;-66
2021/10/12 03:08:03;;;;;;;6.10;1.90;;;9.80;93.00;;;;;;5029974;28;20044;-66
2021/10/12 03:10:29;;;;;;;4.95;1.55;;;9.80;93.00;;;;;;5034869;28;20028;-66
2021/10/12 03:12:54;;;;;;;7.22;2.00;;;9.90;93.20;;;;;;5037303;28;20119;-66
2021/10/12 03:15:20;;;;;;;7.63;2.38;;;9.90;93.20;;;;;;5032512;28;20494;-66
2021/10/12 03:17:46;;;;;;;10.95;2.95;;;9.90;93.20;;;;;;5035294;28;20041;-65
2021/10/12 03:20:11;;;;;;;8.90;2.25;;;9.90;93.30;;;;;;5037284;28;20041;-66
2021/10/12 03:22:39;;;;;;;5.93;2.17;;;10.00;93.30;;;;;;5029829;28;20029;-66
2021/10/12 03:25:05;;;;;;;6.38;2.00;;;10.00;93.30;;;;;;5035277;28;20079;-66
2021/10/12 03:27:31;;;;;;;4.80;1.95;;;10.10;93.20;;;;;;5033314;28;20029;-66
2021/10/12 03:29:57;;;;;;;10.90;2.95;;;10.20;92.90;;;;;;5032582;28;20077;-66
2021/10/12 03:32:22;;;;;;;9.80;2.50;;;10.20;92.80;;;;;;5035459;28;20060;-65
2021/10/12 03:34:48;;;;;;;10.10;2.53;;;10.20;92.70;;;;;;5037005;28;20033;-65
2021/10/12 03:37:14;;;;;;;12.52;2.47;;;10.20;92.60;;;;;;5037394;28;20037;-65
2021/10/12 03:39:39;;;;;;;8.95;2.30;;;10.30;92.50;;;;;;5035471;28;20029;-66
2021/10/12 03:42:05;;;;;;;5.15;1.85;;;10.30;92.50;;;;;;5025915;28;20014;-65
2021/10/12 03:44:31;;;;;;;10.02;2.35;;;10.30;92.50;;;;;;5026143;28;20036;-65
2021/10/12 03:46:57;;;;;;;10.65;2.58;;;10.30;92.30;;;;;;5022272;28;20025;-65
2021/10/12 03:49:22;;;;;;;7.85;2.40;;;10.30;92.50;;;;;;5030845;28;20091;-65
2021/10/12 03:51:48;;;;;;;7.78;2.50;;;10.40;92.30;;;;;;5032132;28;20040;-65
2021/10/12 03:54:14;;;;;;;7.75;1.95;;;10.40;92.40;;;;;;5025671;28;20108;-66
2021/10/12 03:56:41;;;;;;;10.18;2.30;;;10.40;92.30;;;;;;5031152;28;20057;-65
2021/10/12 03:59:07;;;;;;;13.20;2.72;;;10.50;92.30;;;;;;5031785;28;20048;-66
2021/10/12 04:01:33;;;;;;;8.13;2.10;;;10.60;92.30;;;;;;5038714;28;20037;-64
2021/10/12 04:04:00;;;;;;;7.07;2.42;;;10.60;92.10;;;;;;5032206;28;20112;-65
2021/10/12 04:06:25;;;;;;;8.52;2.47;;;10.60;92.20;;;;;;5028222;28;20033;-65
2021/10/12 04:08:51;;;;;;;6.47;2.28;;;10.70;92.20;;;;;;5028982;28;20033;-65
2021/10/12 04:11:17;;;;;;;7.25;2.28;;;10.80;92.10;;;;;;5032659;28;20036;-65
2021/10/12 04:13:43;;;;;;;5.93;2.38;;;10.70;92.10;;;;;;5031214;28;20112;-65
2021/10/12 04:16:08;;;;;;;7.93;2.47;;;10.70;92.10;;;;;;5028816;28;20512;-65
2021/10/12 04:18:34;;;;;;;9.30;2.33;;;10.70;92.20;;;;;;5032796;28;20029;-65
2021/10/12 04:21:00;;;;;;;9.88;2.50;;;10.80;92.20;;;;;;5034057;28;20021;-65
2021/10/12 04:23:26;;;;;;;9.98;2.67;;;10.80;92.40;;;;;;5030079;28;20107;-67
2021/10/12 04:25:51;;;;;;;7.75;2.83;;;10.80;92.40;;;;;;5020924;28;20033;-65
2021/10/12 04:28:17;;;;;;;8.38;2.90;;;10.80;92.50;;;;;;5017889;28;20033;-65
2021/10/12 04:30:45;;;;;;;5.93;2.70;;;10.70;92.40;;;;;;5025034;28;20028;-65
2021/10/12 04:33:12;;;;;;;8.43;2.67;;;10.70;92.70;;;;;;5025043;28;20040;-65
2021/10/12 04:35:38;;;;;;;9.48;2.90;;;10.70;92.70;;;;;;5026928;28;20030;-65
2021/10/12 04:38:04;;;;;;;8.25;2.45;;;10.70;92.90;;;;;;5026246;28;20518;-65
2021/10/12 04:40:30;;;;;;;8.55;2.70;;;10.60;93.00;;;;;;5034219;28;20112;-65
2021/10/12 04:42:57;;;;;;;10.00;2.63;;;10.70;93.20;;;;;;5037189;28;20745;-65
2021/10/12 04:45:24;;;;;;;8.68;2.60;;;10.70;93.20;;;;;;5027067;28;20033;-65
2021/10/12 04:47:49;;;;;;;9.82;2.70;;;10.70;93.20;;;;;;5028009;28;20043;-65
2021/10/12 04:50:16;;;;;;;7.90;2.97;;;10.70;93.00;;;;;;5028002;28;20029;-65
2021/10/12 04:52:43;;;;;;;5.28;2.42;;;10.80;93.00;;;;;;5029549;28;20047;-65
2021/10/12 04:55:09;;;;;;;6.93;2.80;;;10.80;93.10;;;;;;5035968;28;20393;-66
2021/10/12 04:57:35;;;;;;;9.98;2.88;;;10.80;93.20;;;;;;5032285;28;20032;-65
2021/10/12 05:00:05;;;;;;;6.95;2.65;;;10.70;93.20;;;;;;5031371;28;20025;-67
2021/10/12 05:02:30;;;;;;;6.43;2.78;;;10.80;93.20;;;;;;5033685;28;20032;-65
2021/10/12 05:04:57;;;;;;;9.85;3.63;;;10.80;93.10;;;;;;5030751;28;20112;-65
2021/10/12 05:07:22;;;;;;;10.45;3.25;;;10.80;92.90;;;;;;5035972;28;20120;-65
2021/10/12 05:09:48;;;;;;;11.45;3.40;;;10.70;92.90;;;;;;5024992;28;20029;-67
2021/10/12 05:12:14;;;;;;;10.07;3.22;;;10.60;93.30;;;;;;5029151;28;20497;-65
2021/10/12 05:14:39;;;;;;;6.72;2.80;;;10.60;93.40;;;;;;5029466;28;20047;-65
2021/10/12 05:17:13;;;;;;;7.97;3.10;;;10.60;93.40;;;;;;5029986;28;20036;-65
2021/10/12 05:19:40;;;;;;;5.20;2.80;;;10.60;93.40;;;;;;5023521;28;20044;-65
2021/10/12 05:22:05;;;;;;;8.38;3.15;;;10.50;93.60;;;;;;5039030;28;20029;-65
2021/10/12 05:24:31;;;;;;;9.23;3.40;;;10.40;93.60;;;;;;5026045;28;20037;-65
2021/10/12 05:26:57;;;;;;;10.30;3.75;;;10.30;93.80;;;;;;5031478;28;20033;-64
2021/10/12 05:29:23;;;;;;;6.90;3.35;;;10.30;94.00;;;;;;5039161;28;20148;-65
2021/10/12 05:31:49;;;;;;;5.88;3.13;;;10.40;93.90;;;;;;5036347;28;20420;-65
2021/10/12 05:34:16;;;;;;;5.97;3.13;;;10.40;93.80;;;;;;5030841;28;20037;-67
2021/10/12 05:36:42;;;;;;;5.10;2.65;;;10.40;93.80;;;;;;5029597;28;20041;-68
2021/10/12 05:39:08;;;;;;;10.40;2.75;;;10.40;93.90;;;;;;5029231;28;20513;-65
2021/10/12 05:41:33;;;;;;;6.70;2.47;;;10.50;94.00;;;;;;5035538;28;20028;-65
2021/10/12 05:43:59;;;;;;;7.13;2.83;;;10.60;93.80;;;;;;5034617;28;20517;-65
2021/10/12 05:46:25;;;;;;;7.47;3.45;;;10.50;93.80;;;;;;5031309;28;20040;-65
2021/10/12 05:48:50;;;;;;;7.28;2.67;;;10.40;94.00;;;;;;5028719;28;20034;-65
2021/10/12 05:51:21;;;;;;;4.10;2.70;;;10.40;94.00;;;;;;5031890;28;20658;-70
2021/10/12 05:53:49;;;;;;;6.18;3.35;;;10.50;94.00;;;;;;5035804;28;20033;-65
2021/10/12 05:56:26;;;;;;;5.93;2.60;;;10.60;94.00;;;;;;5030868;28;20709;-65
2021/10/12 05:58:53;;;;;;;5.82;2.90;;;10.70;93.70;;;;;;5031857;28;20723;-66
2021/10/12 06:01:22;;;;;;;6.88;3.15;;;10.70;93.50;;;;;;5037836;28;20029;-66
2021/10/12 06:03:48;;;;;;;9.13;3.40;;;10.80;93.50;;;;;;5032912;28;20021;-66
2021/10/12 06:06:15;;;;;;;8.93;4.13;;;10.90;93.40;;;;;;5035704;28;20436;-66
2021/10/12 06:08:42;;;;;;;12.43;3.22;;;10.90;93.20;;;;;;5026219;28;20525;-66
2021/10/12 06:11:09;;;;;;;9.00;3.28;;;11.00;93.30;;;;;;5029324;28;20065;-71
2021/10/12 06:13:37;;;;;;;7.63;3.40;;;11.10;93.00;;;;;;5026384;28;20045;-66
2021/10/12 06:16:03;;;;;;;5.10;2.88;;;11.10;93.00;;;;;;5022060;28;20071;-67
2021/10/12 06:18:29;;;;;;;6.93;2.80;;;11.20;92.90;;;;;;5029660;28;20500;-66
2021/10/12 06:20:55;;;;;;;7.03;3.38;;;11.20;92.90;;;;;;5030123;28;20043;-66
2021/10/12 06:23:23;;;;;;;6.53;2.95;;;11.20;92.70;;;;;;5029162;28;20637;-66
2021/10/12 06:25:51;;;;;;;7.38;2.75;;;11.20;92.70;;;;;;5032659;28;20025;-65
2021/10/12 06:28:19;;;;;;;5.88;2.30;;;11.10;92.50;;;;;;5024218;28;20091;-65
2021/10/12 06:30:45;;;;;;;3.95;2.45;;;11.00;92.70;;;;;;5027161;28;20057;-65
2021/10/12 06:33:12;;;;;;;4.65;2.10;;;11.10;93.00;;;;;;5030581;28;20059;-69
2021/10/12 06:35:37;;;;;;;4.78;2.30;;;11.10;92.70;;;;;;5029768;28;20036;-70
2021/10/12 06:38:04;;;;;;;5.63;2.13;;;11.20;92.90;;;;;;5010739;28;20041;-68
2021/10/12 06:40:31;;;;;;;5.50;1.98;;;11.20;92.50;;;;;;5032165;28;20037;-66
2021/10/12 06:42:57;;;;;;;4.38;1.60;;;11.30;92.60;;;;;;5028145;28;20038;-66
2021/10/12 06:45:23;;;;;;;4.43;2.08;;;11.30;92.50;;;;;;5032087;28;20119;-65
2021/10/12 06:47:49;;;;;;;7.43;2.97;;;11.30;92.60;;;;;;5029440;28;20041;-65
2021/10/12 06:50:17;;;;;;;4.85;2.10;;;11.40;92.50;;;;;;5026029;28;20106;-65
2021/10/12 06:52:43;;;;;;;3.53;1.52;;;11.50;92.30;;;;;;5025515;28;20054;-65
2021/10/12 06:55:10;;;;;;;3.25;1.65;;;11.50;92.20;;;;;;5026950;28;20041;-64
2021/10/12 06:57:36;;;;;;;4.45;1.50;;;11.60;92.20;;;;;;5029218;28;20095;-69
2021/10/12 07:00:08;;;;;;;2.38;1.30;;;11.60;91.90;;;;;;5027516;28;20119;-64
2021/10/12 07:02:34;;;;;;;3.80;1.52;;;11.60;91.90;;;;;;5028611;28;20500;-64
2021/10/12 07:05:00;;;;;;;4.88;1.60;;;11.60;91.80;;;;;;5029277;28;20029;-64
2021/10/12 07:07:25;;;;;;;6.03;1.58;;;11.60;91.70;;;;;;5029246;28;20152;-70
2021/10/12 07:09:51;;;;;;;3.92;1.40;;;11.60;91.60;;;;;;5024856;28;20026;-66
2021/10/12 07:12:17;;;;;;;5.30;1.30;;;11.70;91.70;;;;;;5031589;28;20033;-68
2021/10/12 07:14:43;;;;;;;3.45;1.88;;;11.70;91.70;;;;;;5028845;28;20254;-70
2021/10/12 07:17:08;;;;;;;7.88;2.63;;;11.70;91.80;;;;;;5035880;28;20154;-71
2021/10/12 07:19:34;;;;;;;4.57;2.40;;;11.80;91.60;;;;;;5034399;28;20455;-72
2021/10/12 07:22:00;;;;;;;5.68;1.80;;;11.90;91.60;;;;;;5034282;28;20044;-70
2021/10/12 07:24:26;;;;;;;5.40;1.70;;;11.90;91.50;;;;;;5030061;28;20029;-70
2021/10/12 07:26:53;;;;;;;4.03;1.83;;;12.00;91.20;;;;;;5031006;28;20155;-72
2021/10/12 07:29:19;;;;;;;6.30;2.10;;;12.10;90.90;;;;;;5032926;28;20099;-71
2021/10/12 07:31:45;;;;;;;3.25;1.60;;;12.10;91.00;;;;;;5027332;28;20808;-73
2021/10/12 07:34:11;;;;;;;6.05;1.75;;;12.10;90.90;;;;;;5028046;28;20029;-73
2021/10/12 07:36:37;;;;;;;3.75;1.77;;;12.20;90.90;;;;;;5022075;28;20033;-73
2021/10/12 07:39:05;;;;;;;4.05;1.70;;;12.20;90.50;;;;;;5027287;28;20402;-70
2021/10/12 07:41:31;;;;;;;2.30;1.38;;;12.20;90.20;;;;;;5028736;28;20029;-72
2021/10/12 07:43:57;;;;;;;4.32;1.90;;;12.10;90.30;;;;;;5030583;28;20558;-72
2021/10/12 07:46:23;;;;;;;7.32;1.90;;;12.10;90.50;;;;;;5021546;28;20032;-71
2021/10/12 07:48:51;;;;;;;2.03;1.30;;;12.10;90.80;;;;;;5020994;28;20365;-73
2021/10/12 07:51:16;;;;;;;6.88;2.65;;;12.20;90.80;;;;;;5029852;28;20112;-73
2021/10/12 07:53:42;;;;;;;2.00;1.70;;;12.30;90.40;;;;;;5029638;28;20128;-73
2021/10/12 07:56:10;;;;;;;2.05;1.50;;;12.40;90.20;;;;;;5028852;28;20113;-70
2021/10/12 07:58:36;;;;;;;2.72;1.60;;;12.40;89.80;;;;;;5030193;28;20120;-70
2021/10/12 08:01:03;;;;;;;3.60;1.67;;;12.40;89.80;;;;;;5033743;28;20071;-67
2021/10/12 08:03:29;;;;;;;6.00;1.73;;;12.50;90.10;;;;;;5031238;28;20060;-67
2021/10/12 08:05:55;;;;;;;2.40;1.67;;;12.60;89.90;;;;;;5026614;28;20073;-67
2021/10/12 08:08:21;;;;;;;2.92;1.60;;;12.60;89.30;;;;;;5032387;28;20852;-66
2021/10/12 08:10:46;;;;;;;7.38;1.85;;;12.60;89.70;;;;;;5035898;28;20120;-66
2021/10/12 08:13:19;;;;;;;3.75;1.25;;;12.50;89.50;;;;;;5029152;28;20065;-68
2021/10/12 08:15:53;;;;;;;3.75;1.40;;;12.50;88.60;;;;;;5030706;28;20060;-67
2021/10/12 08:18:24;;;;;;;1.33;1.08;;;12.40;89.50;;;;;;5023277;28;20082;-66
2021/10/12 08:20:50;;;;;;;1.52;1.10;;;12.50;89.50;;;;;;5030987;28;20021;-66
2021/10/12 08:23:16;;;;;;;1.73;1.00;;;12.60;90.00;;;;;;5019164;28;20091;-67
2021/10/12 08:25:42;;;;;;;3.67;1.17;;;12.80;89.00;;;;;;5030288;28;20033;-65
2021/10/12 08:28:08;;;;;;;2.00;1.17;;;13.00;88.00;;;;;;5023741;28;20486;-67
2021/10/12 08:30:34;;;;;;;2.83;1.08;;;13.10;87.60;;;;;;5028488;28;20025;-66
2021/10/12 08:38:19;;;;;;;2.97;0.98;;;13.00;86.10;;;;;;4989432;28;20144;-66
2021/10/12 08:40:46;;;;;;;3.00;1.20;;;13.00;87.40;;;;;;4995036;28;20034;-66
2021/10/12 08:43:13;;;;;;;4.68;1.40;;;13.20;87.80;;;;;;4997114;28;20030;-66
2021/10/12 08:45:39;;;;;;;1.17;0.85;;;13.40;86.20;;;;;;4998743;28;20044;-66
2021/10/12 08:48:06;;;;;;;3.15;1.23;;;13.40;85.50;;;;;;4996745;28;20212;-67
2021/10/12 08:50:33;;;;;;;3.22;1.10;;;13.50;85.90;;;;;;4981826;28;20045;-65
2021/10/12 08:53:03;;;;;;;1.88;0.75;;;13.50;82.80;;;;;;4983680;28;20087;-64
2021/10/12 08:55:29;;;;;;;4.03;1.20;;;13.50;81.10;;;;;;5001032;28;20038;-67
2021/10/12 08:57:55;;;;;;;3.42;1.10;;;13.50;82.50;;;;;;4991481;28;20436;-65
2021/10/12 09:00:22;;;;;;;4.53;1.15;;;13.50;84.30;;;;;;5000476;28;20025;-65
2021/10/12 09:03:15;;;;;;;1.27;0.75;;;13.50;84.00;;;;;;4966117;28;20037;-65
2021/10/12 09:05:54;;;;;;;1.73;0.60;;;13.50;82.90;;;;;;4999951;28;20129;-67
2021/10/12 09:08:28;;;;;;;3.33;0.90;;;13.60;81.80;;;;;;5001745;28;20489;-67
2021/10/12 09:10:56;;;;;;;2.17;0.95;;;13.60;82.70;;;;;;4982870;28;20042;-65
2021/10/12 09:13:22;;;;;;;1.73;1.00;;;13.60;82.20;;;;;;5000967;28;20032;-64
2021/10/12 09:16:10;;;;;;;4.50;0.93;;;13.60;82.20;;;;;;4984732;28;20045;-65
2021/10/12 09:19:03;;;;;;;6.72;0.75;;;13.50;83.00;;;;;;4999369;28;20037;-66
2021/10/12 09:21:33;;;;;;;1.48;0.80;;;13.40;83.70;;;;;;4994015;28;20518;-66
2021/10/12 09:24:23;;;;;;;2.95;0.60;;;13.20;84.00;;;;;;5002705;28;20041;-66
2021/10/12 09:27:06;;;;;;;1.95;0.85;;;13.10;85.30;;;;;;5004570;28;20116;-66
2021/10/12 09:29:35;;;;;;;1.55;0.70;;;12.80;85.40;;;;;;4987468;28;20112;-65
2021/10/12 09:32:03;;;;;;;2.80;0.80;;;12.80;86.50;;;;;;4986326;28;20037;-65
2021/10/12 09:34:30;;;;;;;0.82;0.80;;;12.80;86.60;;;;;;5005466;28;20726;-64
2021/10/12 09:36:56;;;;;;;4.53;0.98;;;12.80;88.40;;;;;;5003496;28;20077;-65
2021/10/12 09:39:37;;;;;;;1.63;0.60;;;13.30;87.70;;;;;;5002081;28;20045;-65
2021/10/12 09:42:04;;;;;;;4.07;0.90;;;13.90;86.10;;;;;;5002441;28;20135;-64
2021/10/12 09:44:32;;;;;;;4.32;1.58;;;14.50;82.90;;;;;;5000306;28;20512;-65
2021/10/12 09:47:13;;;;;;;3.60;0.90;;;14.80;80.60;;;;;;5002040;28;20037;-69
2021/10/12 09:49:39;;;;;;;3.75;0.88;;;15.30;76.90;;;;;;4968193;28;20056;-69
2021/10/12 09:52:10;;;;;;;3.88;0.95;;;16.10;75.80;;;;;;5002343;28;20836;-68
2021/10/12 09:54:38;;;;;;;4.15;0.90;;;16.30;76.30;;;;;;5003866;28;20485;-68
2021/10/12 09:57:06;;;;;;;2.42;0.57;;;16.40;72.80;;;;;;5003172;28;20049;-68
2021/10/12 09:59:33;;;;;;;2.83;0.50;;;16.10;71.60;;;;;;5003868;28;20091;-65
2021/10/12 10:02:00;;;;;;;5.68;0.85;;;15.90;70.20;;;;;;5004153;28;20088;-66
2021/10/12 10:04:28;;;;;;;2.28;0.77;;;15.40;69.50;;;;;;5003108;28;20030;-66
2021/10/12 10:07:04;;;;;;;1.73;0.47;;;15.00;71.00;;;;;;5003284;28;20497;-67
2021/10/12 10:09:31;;;;;;;4.40;0.95;;;14.70;74.70;;;;;;4999483;28;20753;-66
2021/10/12 10:11:58;;;;;;;1.77;0.82;;;14.60;74.60;;;;;;5001864;28;20536;-67
2021/10/12 10:14:25;;;;;;;2.30;0.50;;;14.40;72.90;;;;;;5001719;28;20048;-67
2021/10/12 10:16:53;;;;;;;2.10;0.70;;;14.20;74.00;;;;;;5001317;28;20042;-69
2021/10/12 10:19:28;;;;;;;3.15;0.80;;;14.10;73.50;;;;;;5000396;28;20068;-68
2021/10/12 10:21:55;;;;;;;1.88;0.60;;;14.10;75.50;;;;;;4993201;28;20041;-65
2021/10/12 10:24:41;;;;;;;2.63;0.60;;;14.10;75.00;;;;;;4990809;28;20872;-64
2021/10/12 10:27:07;;;;;;;1.60;0.68;;;14.10;76.40;;;;;;4999378;28;20038;-67
2021/10/12 10:29:37;;;;;;;3.85;0.85;;;14.20;75.50;;;;;;5003060;28;20057;-67
2021/10/12 10:32:22;;;;;;;2.05;0.43;;;14.20;75.70;;;;;;5002489;28;20045;-70
2021/10/12 10:34:59;;;;;;;2.70;0.60;;;14.30;75.80;;;;;;5000889;28;20884;-69
2021/10/12 10:37:28;;;;;;;4.25;0.85;;;14.50;73.60;;;;;;5002597;28;20033;-70
2021/10/12 10:40:23;;;;;;;3.92;0.80;;;14.60;72.80;;;;;;4983818;28;20046;-70
2021/10/12 10:42:55;;;;;;;2.50;0.70;;;14.70;74.00;;;;;;5002257;28;20868;-69
2021/10/12 10:45:39;;;;;;;2.22;0.45;;;14.60;72.60;;;;;;4999625;28;20030;-73
2021/10/12 10:48:05;;;;;;;4.97;0.93;;;14.50;71.20;;;;;;5000071;28;20610;-71
2021/10/12 10:50:35;;;;;;;2.50;0.75;;;14.40;70.70;;;;;;4992240;28;20481;-69
2021/10/12 10:53:04;;;;;;;3.55;0.55;;;14.30;70.80;;;;;;4984745;28;20092;-67
2021/10/12 10:55:37;;;;;;;1.48;0.40;;;14.00;70.50;;;;;;4992447;28;20029;-69
2021/10/12 10:58:05;;;;;;;1.90;0.40;;;13.80;71.50;;;;;;4983832;28;20077;-67
2021/10/12 11:00:47;;;;;;;1.88;0.68;;;13.80;72.20;;;;;;4999278;28;20022;-68
2021/10/12 11:03:35;;;;;;;2.42;0.75;;;13.90;71.60;;;;;;5002407;28;20513;-68
2021/10/12 11:06:13;;;;;;;3.50;0.85;;;14.00;71.50;;;;;;4998610;28;20667;-69
2021/10/12 11:09:00;;;;;;;4.38;0.63;;;14.30;70.70;;;;;;5002265;28;20044;-69
2021/10/12 11:11:34;;;;;;;3.65;0.82;;;14.50;73.10;;;;;;4980965;28;20041;-68
2021/10/12 11:14:01;;;;;;;3.08;0.50;;;14.80;71.40;;;;;;5002572;28;20591;-67
2021/10/12 11:16:34;;;;;;;2.95;0.65;;;14.80;71.20;;;;;;5002490;28;20034;-68
2021/10/12 11:19:01;;;;;;;1.90;0.60;;;14.70;69.90;;;;;;4984509;28;20018;-72
2021/10/12 11:21:27;;;;;;;3.05;0.65;;;14.60;70.50;;;;;;5003078;28;20030;-70
2021/10/12 11:23:54;;;;;;;2.13;0.50;;;14.60;72.30;;;;;;5003058;28;20037;-67
2021/10/12 11:26:27;;;;;;;3.92;0.40;;;14.50;72.00;;;;;;5002600;28;20022;-67
2021/10/12 11:28:57;;;;;;;0.95;0.40;;;14.50;69.20;;;;;;5000774;28;20030;-69
2021/10/12 11:31:26;;;;;;;0.98;0.45;;;14.50;71.90;;;;;;5002236;28;20835;-68
2021/10/12 11:33:57;;;;;;;3.67;0.63;;;14.50;70.20;;;;;;4986631;28;20124;-71
2021/10/12 11:36:28;;;;;;;2.28;0.50;;;14.60;70.90;;;;;;5001704;28;20818;-68
2021/10/12 11:38:59;;;;;;;3.10;0.50;;;14.90;70.10;;;;;;4999034;28;20116;-70
2021/10/12 11:41:31;;;;;;;3.25;0.60;;;15.10;72.00;;;;;;5001643;28;20117;-66
2021/10/12 11:43:59;;;;;;;3.17;1.15;;;15.20;72.80;;;;;;5002054;28;20678;-66
2021/10/12 11:46:26;;;;;;;2.58;0.60;;;15.20;69.60;;;;;;5001603;28;20025;-76
2021/10/12 11:48:53;;;;;;;3.30;0.57;;;15.10;68.10;;;;;;4982634;28;20433;-67
2021/10/12 11:51:33;;;;;;;1.60;0.57;;;14.90;67.80;;;;;;5001428;28;20817;-67
2021/10/12 11:54:02;;;;;;;3.45;1.13;;;14.80;69.20;;;;;;5001572;28;20112;-68
2021/10/12 11:56:33;;;;;;;1.58;0.65;;;14.70;70.70;;;;;;5000279;28;20042;-68
2021/10/12 11:58:59;;;;;;;2.55;0.88;;;14.70;69.40;;;;;;5001255;28;20030;-67
2021/10/12 12:01:37;;;;;;;2.17;0.60;;;14.80;69.00;;;;;;4983671;28;20096;-69
2021/10/12 12:04:04;;;;;;;1.08;0.50;;;14.80;68.10;;;;;;4999659;28;20088;-70
2021/10/12 12:06:35;;;;;;;1.50;0.50;;;14.90;66.60;;;;;;5001973;28;20616;-70
2021/10/12 12:09:08;;;;;;;2.53;0.50;;;15.00;67.10;;;;;;5000689;28;20088;-71
2021/10/12 12:11:34;;;;;;;0.28;0.28;;;15.00;65.50;;;;;;5001372;28;20052;-69
2021/10/12 12:14:03;;;;;;;1.13;0.43;;;15.00;66.70;;;;;;5001402;28;20041;-67
2021/10/12 12:16:33;;;;;;;1.98;0.70;;;15.00;66.40;;;;;;4983468;28;20112;-69
2021/10/12 12:19:00;;;;;;;2.58;0.57;;;15.00;63.20;;;;;;5000815;28;20411;-68
2021/10/12 12:21:32;;;;;;;1.85;0.40;;;15.10;65.20;;;;;;4983626;28;20030;-70
2021/10/12 12:24:02;;;;;;;2.22;0.40;;;15.20;64.90;;;;;;5001551;28;20104;-68
2021/10/12 12:26:30;;;;;;;2.03;0.60;;;15.30;63.20;;;;;;4983168;28;20846;-69
2021/10/12 12:29:19;;;;;;;2.05;0.32;;;15.50;64.00;;;;;;5000108;28;20330;-71
2021/10/12 12:31:51;;;;;;;1.77;0.50;;;15.60;59.60;;;;;;5001377;28;20033;-70
2021/10/12 12:34:26;;;;;;;0.60;0.40;;;15.50;62.80;;;;;;4984296;28;20622;-69
2021/10/12 12:36:52;;;;;;;2.22;1.08;;;15.30;59.00;;;;;;5001575;28;20061;-69
2021/10/12 12:39:18;;;;;;;1.75;0.60;;;15.30;60.50;;;;;;4999762;28;20137;-68
2021/10/12 12:41:44;;;;;;;2.30;0.47;;;15.30;59.60;;;;;;5000618;28;20064;-69
2021/10/12 12:44:22;;;;;;;1.50;0.40;;;15.30;58.70;;;;;;4999399;28;20834;-68
2021/10/12 12:47:01;;;;;;;1.90;0.65;;;15.20;59.10;;;;;;4997175;28;20128;-68
2021/10/12 12:49:28;;;;;;;2.28;0.63;;;15.10;60.60;;;;;;5001200;28;20030;-69
2021/10/12 12:51:54;;;;;;;2.65;0.32;;;15.10;59.50;;;;;;4982835;28;20038;-66
2021/10/12 12:54:44;;;;;;;2.13;0.45;;;15.10;60.80;;;;;;5000178;28;20129;-68
2021/10/12 12:57:17;;;;;;;1.73;0.50;;;15.10;58.90;;;;;;4999857;28;20034;-70